Time;durP1;ratioP1;P1;durP2;ratioP2;P2;SDS_P1;SDS_P2;PMS_P1;PMS_P2;Temp;Humidity;BMP_temperature;BMP_pressure;BME280_temperature;BME280_humidity;BME280_pressure;Samples;Min_cycle;Max_cycle;Signal;HPM_P1;HPM_P2
2022/05/14 00:00:52;;;;;;;9.98;3.70;;;;;;;;;;5050525;28;20077;-70
2022/05/14 00:03:17;;;;;;;8.07;4.00;;;;;;;;;;5050152;28;20025;-71
2022/05/14 00:05:43;;;;;;;7.80;3.42;;;;;;;;;;5048434;28;20060;-71
2022/05/14 00:08:09;;;;;;;6.30;3.45;;;;;;;;;;5049676;28;20019;-70
2022/05/14 00:13:03;;;;;;;11.35;3.88;;;;;;;;;;5048552;28;20388;-70
2022/05/14 00:13:20;;;;;;;9.82;3.67;;;;;;;;;;5046839;28;20032;-70
2022/05/14 00:15:45;;;;;;;18.02;4.57;;;;;;;;;;5048599;28;20021;-70
2022/05/14 00:18:10;;;;;;;7.00;3.67;;;;;;;;;;5046545;28;20474;-70
2022/05/14 00:20:36;;;;;;;10.82;3.80;;;;;;;;;;5047880;28;20275;-70
2022/05/14 00:23:02;;;;;;;8.13;3.70;;;;;;;;;;5048165;28;20016;-70
2022/05/14 00:25:27;;;;;;;8.40;3.80;;;;;;;;;;5048735;28;20024;-71
2022/05/14 00:27:53;;;;;;;6.78;3.63;;;;;;;;;;5045970;28;20017;-70
2022/05/14 00:30:19;;;;;;;15.50;3.78;;;;;;;;;;5047114;28;20378;-70
2022/05/14 00:32:47;;;;;;;10.13;3.97;;;;;;;;;;5047461;28;20033;-70
2022/05/14 00:35:12;;;;;;;10.25;3.90;;;;;;;;;;5046621;28;20020;-70
2022/05/14 00:37:37;;;;;;;12.48;4.00;;;;;;;;;;5047726;28;20024;-70
2022/05/14 00:40:03;;;;;;;11.77;3.83;;;;;;;;;;5048111;28;20088;-70
2022/05/14 00:42:28;;;;;;;7.43;3.90;;;;;;;;;;5045798;28;20040;-70
2022/05/14 00:44:53;;;;;;;10.97;4.47;;;;;;;;;;5045925;28;20877;-70
2022/05/14 00:47:19;;;;;;;11.97;3.83;;;;;;;;;;5045100;28;20287;-70
2022/05/14 00:49:44;;;;;;;16.63;4.35;;;;;;;;;;5042751;28;20280;-71
2022/05/14 00:52:12;;;;;;;9.07;4.32;;;;;;;;;;5041774;28;20377;-70
2022/05/14 00:54:41;;;;;;;12.77;3.65;;;;;;;;;;5048347;28;20067;-71
2022/05/14 00:57:09;;;;;;;7.97;3.78;;;;;;;;;;5045951;28;20028;-71
2022/05/14 00:59:35;;;;;;;11.80;4.47;;;;;;;;;;5046240;28;20021;-71
2022/05/14 01:02:00;;;;;;;9.15;4.10;;;;;;;;;;5045792;28;20128;-71
2022/05/14 01:04:26;;;;;;;8.57;4.07;;;;;;;;;;5047096;28;20100;-71
2022/05/14 01:06:56;;;;;;;8.13;3.40;;;;;;;;;;5048302;28;20476;-71
2022/05/14 01:09:22;;;;;;;7.47;3.67;;;;;;;;;;5044125;28;20091;-71
2022/05/14 01:11:48;;;;;;;11.45;4.30;;;;;;;;;;5048425;28;20135;-71
2022/05/14 01:14:13;;;;;;;6.38;3.90;;;;;;;;;;5047768;28;20028;-71
2022/05/14 01:16:40;;;;;;;14.57;4.40;;;;;;;;;;5048564;28;20033;-71
2022/05/14 01:19:05;;;;;;;12.80;4.03;;;;;;;;;;5045967;28;20013;-71
2022/05/14 01:21:36;;;;;;;11.73;4.43;;;;;;;;;;5045888;28;20025;-71
2022/05/14 01:26:51;;;;;;;12.10;3.80;;;;;;;;;;5047637;28;20036;-71
2022/05/14 01:29:21;;;;;;;10.38;3.92;;;;;;;;;;5045673;28;20416;-71
2022/05/14 01:31:47;;;;;;;10.32;4.20;;;;;;;;;;5048066;28;20017;-71
2022/05/14 01:34:14;;;;;;;12.52;4.70;;;;;;;;;;5047357;28;20096;-71
2022/05/14 01:36:40;;;;;;;9.63;4.20;;;;;;;;;;5046243;28;20028;-71
2022/05/14 01:39:06;;;;;;;9.10;4.57;;;;;;;;;;5048566;28;20029;-71
2022/05/14 01:41:32;;;;;;;10.20;3.72;;;;;;;;;;5047919;28;20526;-71
2022/05/14 01:43:57;;;;;;;8.13;4.53;;;;;;;;;;5048535;28;20021;-71
2022/05/14 01:46:22;;;;;;;12.93;4.23;;;;;;;;;;5046845;28;20025;-71
2022/05/14 01:48:48;;;;;;;10.80;4.25;;;;;;;;;;5047226;28;20366;-71
2022/05/14 01:51:13;;;;;;;14.90;4.18;;;;;;;;;;5046472;28;20135;-71
2022/05/14 01:53:38;;;;;;;13.40;5.35;;;;;;;;;;5047773;28;20060;-71
2022/05/14 01:56:04;;;;;;;13.23;4.65;;;;;;;;;;5048058;28;20426;-71
2022/05/14 01:58:38;;;;;;;8.27;4.13;;;;;;;;;;5047759;28;20055;-71
2022/05/14 02:01:06;;;;;;;10.75;4.50;;;;;;;;;;5048971;28;20021;-71
2022/05/14 02:03:31;;;;;;;14.85;4.72;;;;;;;;;;5046697;28;20102;-71
2022/05/14 02:05:56;;;;;;;11.73;4.57;;;;;;;;;;5047897;28;20009;-71
2022/05/14 02:08:22;;;;;;;13.13;4.40;;;;;;;;;;5048247;28;20303;-71
2022/05/14 02:10:47;;;;;;;13.27;4.35;;;;;;;;;;5048729;28;20809;-71
2022/05/14 02:13:12;;;;;;;11.10;3.83;;;;;;;;;;5045526;28;20036;-71
2022/05/14 02:15:38;;;;;;;13.68;5.13;;;;;;;;;;5047521;28;20321;-71
2022/05/14 02:18:04;;;;;;;20.02;4.35;;;;;;;;;;5047874;28;20618;-71
2022/05/14 02:20:29;;;;;;;11.43;4.77;;;;;;;;;;5047613;28;20056;-71
2022/05/14 02:22:54;;;;;;;9.13;4.63;;;;;;;;;;5047269;28;20267;-71
2022/05/14 02:25:19;;;;;;;13.43;4.83;;;;;;;;;;5047249;28;20079;-71
2022/05/14 02:27:45;;;;;;;9.00;4.28;;;;;;;;;;5047607;28;20274;-71
2022/05/14 02:30:10;;;;;;;15.27;4.85;;;;;;;;;;5049431;28;20028;-71
2022/05/14 02:32:36;;;;;;;10.60;4.85;;;;;;;;;;5048227;28;20680;-72
2022/05/14 02:35:02;;;;;;;10.98;4.65;;;;;;;;;;5048657;28;20051;-72
2022/05/14 02:37:28;;;;;;;11.35;4.22;;;;;;;;;;5048296;28;20568;-72
2022/05/14 02:39:53;;;;;;;14.95;4.70;;;;;;;;;;5051314;28;20116;-74
2022/05/14 02:42:19;;;;;;;13.70;5.55;;;;;;;;;;5049427;28;20389;-70
2022/05/14 02:44:44;;;;;;;17.00;5.57;;;;;;;;;;5051161;28;20032;-72
2022/05/14 02:47:10;;;;;;;16.40;4.90;;;;;;;;;;5049787;28;20013;-69
2022/05/14 02:49:35;;;;;;;16.10;5.28;;;;;;;;;;5051154;28;20027;-72
2022/05/14 02:52:01;;;;;;;15.07;5.43;;;;;;;;;;5049685;28;20492;-72
2022/05/14 02:54:26;;;;;;;10.25;4.93;;;;;;;;;;5050212;28;20385;-72
2022/05/14 02:56:51;;;;;;;9.65;5.00;;;;;;;;;;5050067;28;20396;-70
2022/05/14 02:59:16;;;;;;;12.15;5.20;;;;;;;;;;5050851;28;20017;-70
2022/05/14 03:01:48;;;;;;;7.50;4.70;;;;;;;;;;5048124;28;20037;-70
2022/05/14 03:04:14;;;;;;;9.43;4.63;;;;;;;;;;5049851;28;20034;-71
2022/05/14 03:06:40;;;;;;;10.05;5.78;;;;;;;;;;5049179;28;20519;-71
2022/05/14 03:09:05;;;;;;;18.33;5.80;;;;;;;;;;5052154;28;20024;-69
2022/05/14 03:11:31;;;;;;;10.73;5.33;;;;;;;;;;5050772;28;20287;-71
2022/05/14 03:13:57;;;;;;;10.75;4.90;;;;;;;;;;5051700;28;20675;-72
2022/05/14 03:16:22;;;;;;;11.73;4.97;;;;;;;;;;5047712;28;20028;-72
2022/05/14 03:18:47;;;;;;;14.40;5.30;;;;;;;;;;5050843;28;20311;-72
2022/05/14 03:21:12;;;;;;;16.58;4.50;;;;;;;;;;5050735;28;20267;-72
2022/05/14 03:23:37;;;;;;;10.40;4.77;;;;;;;;;;5048529;28;20478;-72
2022/05/14 03:26:02;;;;;;;12.38;4.85;;;;;;;;;;5048728;28;20263;-72
2022/05/14 03:28:28;;;;;;;14.57;5.10;;;;;;;;;;5045615;28;20028;-72
2022/05/14 03:30:53;;;;;;;12.60;4.27;;;;;;;;;;5049535;28;20362;-72
2022/05/14 03:33:18;;;;;;;8.73;4.10;;;;;;;;;;5048756;28;20270;-72
2022/05/14 03:35:44;;;;;;;9.55;4.97;;;;;;;;;;5051261;28;20032;-72
2022/05/14 03:38:09;;;;;;;13.77;4.70;;;;;;;;;;5051032;28;20020;-71
2022/05/14 03:40:34;;;;;;;12.18;5.35;;;;;;;;;;5049753;28;20298;-72
2022/05/14 03:42:59;;;;;;;12.63;5.43;;;;;;;;;;5048346;28;20021;-72
2022/05/14 03:45:24;;;;;;;13.98;5.30;;;;;;;;;;5048967;28;20029;-70
2022/05/14 03:47:50;;;;;;;10.00;5.15;;;;;;;;;;5047724;28;20032;-70
2022/05/14 03:50:15;;;;;;;17.27;7.32;;;;;;;;;;5051181;28;20071;-70
2022/05/14 03:52:40;;;;;;;13.27;4.95;;;;;;;;;;5048718;28;20032;-69
2022/05/14 03:55:05;;;;;;;13.15;4.45;;;;;;;;;;5049038;28;20025;-69
2022/05/14 03:57:31;;;;;;;16.05;4.97;;;;;;;;;;5047278;28;20036;-71
2022/05/14 03:59:56;;;;;;;12.73;5.18;;;;;;;;;;5050414;28;20066;-71
2022/05/14 04:02:21;;;;;;;12.73;4.63;;;;;;;;;;5048182;28;20024;-71
2022/05/14 04:04:47;;;;;;;16.70;5.15;;;;;;;;;;5048288;28;20703;-70
2022/05/14 04:07:12;;;;;;;12.50;4.85;;;;;;;;;;5047251;28;20359;-70
2022/05/14 04:09:37;;;;;;;8.70;4.40;;;;;;;;;;5046305;28;20025;-70
2022/05/14 04:12:02;;;;;;;10.75;4.72;;;;;;;;;;5046010;28;20426;-70
2022/05/14 04:14:27;;;;;;;9.40;4.70;;;;;;;;;;5047964;28;20021;-71
2022/05/14 04:16:53;;;;;;;15.00;5.20;;;;;;;;;;5044227;28;20032;-71
2022/05/14 04:19:21;;;;;;;16.97;5.33;;;;;;;;;;5044204;28;20281;-71
2022/05/14 04:21:46;;;;;;;21.05;5.60;;;;;;;;;;5045262;28;20294;-71
2022/05/14 04:24:12;;;;;;;11.25;5.35;;;;;;;;;;5047209;28;20025;-71
2022/05/14 04:26:38;;;;;;;12.23;5.78;;;;;;;;;;5047517;28;20048;-70
2022/05/14 04:29:03;;;;;;;15.73;4.95;;;;;;;;;;5048029;28;20017;-71
2022/05/14 04:31:28;;;;;;;11.27;4.72;;;;;;;;;;5044337;28;20031;-71
2022/05/14 04:33:53;;;;;;;16.93;5.13;;;;;;;;;;5047824;28;20051;-71
2022/05/14 04:36:19;;;;;;;14.33;5.13;;;;;;;;;;5047989;28;20337;-70
2022/05/14 04:38:44;;;;;;;11.35;4.90;;;;;;;;;;5048502;28;20271;-71
2022/05/14 04:41:09;;;;;;;15.97;6.20;;;;;;;;;;5048505;28;20961;-70
2022/05/14 04:43:34;;;;;;;8.27;4.68;;;;;;;;;;5048824;28;20275;-71
2022/05/14 04:46:00;;;;;;;10.40;5.03;;;;;;;;;;5049118;28;20025;-70
2022/05/14 04:48:25;;;;;;;14.93;4.97;;;;;;;;;;5052394;28;20267;-71
2022/05/14 04:50:50;;;;;;;16.77;5.82;;;;;;;;;;5058021;28;20025;-71
2022/05/14 04:53:15;;;;;;;12.90;5.15;;;;;;;;;;5048305;28;20021;-70
2022/05/14 04:55:41;;;;;;;12.57;5.10;;;;;;;;;;5050080;28;20021;-70
2022/05/14 04:58:07;;;;;;;10.27;5.13;;;;;;;;;;5046151;28;20025;-72
2022/05/14 05:00:33;;;;;;;10.45;4.78;;;;;;;;;;5049548;28;20029;-71
2022/05/14 05:05:42;;;;;;;12.30;5.22;;;;;;;;;;5047242;28;20035;-71
2022/05/14 05:08:07;;;;;;;14.52;5.78;;;;;;;;;;5047987;28;20013;-71
2022/05/14 05:10:33;;;;;;;12.20;5.28;;;;;;;;;;5050436;28;20019;-71
2022/05/14 05:12:58;;;;;;;14.00;5.18;;;;;;;;;;5046445;28;20017;-70
2022/05/14 05:15:23;;;;;;;9.20;4.50;;;;;;;;;;5048886;28;20021;-70
2022/05/14 05:17:48;;;;;;;9.25;4.93;;;;;;;;;;5047130;28;20120;-70
2022/05/14 05:20:14;;;;;;;8.07;5.47;;;;;;;;;;5049413;28;20017;-70
2022/05/14 05:22:40;;;;;;;11.35;4.72;;;;;;;;;;5044422;28;20024;-70
2022/05/14 05:25:06;;;;;;;17.15;6.18;;;;;;;;;;5047646;28;20020;-70
2022/05/14 05:27:31;;;;;;;10.90;5.20;;;;;;;;;;5048835;28;20021;-70
2022/05/14 05:29:56;;;;;;;14.98;5.80;;;;;;;;;;5046983;28;20017;-70
2022/05/14 05:32:22;;;;;;;14.20;5.10;;;;;;;;;;5046806;28;20016;-70
2022/05/14 05:34:47;;;;;;;11.40;4.85;;;;;;;;;;5049758;28;20021;-70
2022/05/14 05:37:12;;;;;;;14.40;4.78;;;;;;;;;;5046291;28;20275;-70
2022/05/14 05:39:37;;;;;;;10.13;4.70;;;;;;;;;;5049042;28;20095;-70
2022/05/14 05:42:02;;;;;;;10.82;4.60;;;;;;;;;;5048320;28;20508;-70
2022/05/14 05:44:28;;;;;;;16.83;5.55;;;;;;;;;;5049391;28;20032;-70
2022/05/14 05:46:53;;;;;;;9.38;4.80;;;;;;;;;;5044709;28;20029;-70
2022/05/14 05:49:19;;;;;;;16.00;5.20;;;;;;;;;;5044797;28;20021;-72
2022/05/14 05:51:44;;;;;;;15.90;5.70;;;;;;;;;;5048440;28;20075;-71
2022/05/14 05:56:57;;;;;;;15.85;4.47;;;;;;;;;;5046772;28;20031;-72
2022/05/14 05:59:24;;;;;;;12.07;4.35;;;;;;;;;;5046834;28;20032;-71
2022/05/14 06:01:51;;;;;;;12.13;4.35;;;;;;;;;;5064459;28;20028;-71
2022/05/14 06:04:16;;;;;;;18.90;5.28;;;;;;;;;;5047754;28;20021;-70
2022/05/14 06:06:42;;;;;;;17.38;4.90;;;;;;;;;;5047015;28;20524;-69
2022/05/14 06:09:08;;;;;;;8.43;4.75;;;;;;;;;;5044359;28;20330;-69
2022/05/14 06:11:34;;;;;;;13.27;5.03;;;;;;;;;;5050021;28;20366;-70
2022/05/14 06:13:59;;;;;;;19.35;6.45;;;;;;;;;;5051160;28;20047;-70
2022/05/14 06:16:25;;;;;;;15.45;5.50;;;;;;;;;;5051719;28;20021;-71
2022/05/14 06:18:50;;;;;;;12.52;4.20;;;;;;;;;;5049205;28;20100;-70
2022/05/14 06:21:16;;;;;;;7.67;3.47;;;;;;;;;;5048666;28;20622;-71
2022/05/14 06:23:41;;;;;;;7.70;2.80;;;;;;;;;;5051464;28;20272;-71
2022/05/14 06:26:06;;;;;;;10.65;2.67;;;;;;;;;;5049645;28;20271;-71
2022/05/14 06:28:32;;;;;;;15.77;3.30;;;;;;;;;;5048260;28;20021;-71
2022/05/14 06:30:57;;;;;;;24.98;5.22;;;;;;;;;;5049807;28;20048;-71
2022/05/14 06:33:22;;;;;;;24.73;5.00;;;;;;;;;;5050740;28;20421;-71
2022/05/14 06:35:48;;;;;;;17.05;3.30;;;;;;;;;;5050517;28;20063;-71
2022/05/14 06:38:14;;;;;;;14.85;3.50;;;;;;;;;;5048580;28;20473;-71
2022/05/14 06:40:40;;;;;;;10.18;3.47;;;;;;;;;;5046747;28;20490;-71
2022/05/14 06:43:05;;;;;;;19.08;2.65;;;;;;;;;;5048440;28;20029;-71
2022/05/14 06:45:30;;;;;;;12.07;3.00;;;;;;;;;;5047871;28;20030;-70
2022/05/14 06:47:56;;;;;;;8.38;2.30;;;;;;;;;;5048423;28;20021;-70
2022/05/14 06:50:21;;;;;;;9.25;2.75;;;;;;;;;;5047717;28;20036;-71
2022/05/14 06:52:48;;;;;;;12.70;2.47;;;;;;;;;;5050472;28;20028;-70
2022/05/14 06:55:15;;;;;;;11.95;2.55;;;;;;;;;;5048694;28;20078;-70
2022/05/14 06:57:41;;;;;;;10.02;2.30;;;;;;;;;;5048551;28;20090;-70
2022/05/14 07:00:07;;;;;;;7.47;2.42;;;;;;;;;;5048025;28;20552;-70
2022/05/14 07:02:33;;;;;;;13.68;3.40;;;;;;;;;;5046986;28;20029;-70
2022/05/14 07:07:43;;;;;;;15.25;2.65;;;;;;;;;;5045791;28;20032;-70
2022/05/14 07:10:08;;;;;;;10.70;2.58;;;;;;;;;;5045960;28;20464;-70
2022/05/14 07:12:33;;;;;;;13.77;2.50;;;;;;;;;;5048448;28;20017;-70
2022/05/14 07:14:59;;;;;;;10.93;2.63;;;;;;;;;;5048787;28;20028;-70
2022/05/14 07:17:25;;;;;;;12.48;3.83;;;;;;;;;;5045821;28;20390;-70
2022/05/14 07:19:51;;;;;;;24.70;4.93;;;;;;;;;;5045923;28;20024;-71
2022/05/14 07:22:17;;;;;;;16.77;3.92;;;;;;;;;;5048365;28;20126;-71
2022/05/14 07:24:42;;;;;;;13.93;3.17;;;;;;;;;;5047773;28;20731;-71
2022/05/14 07:27:11;;;;;;;15.68;3.90;;;;;;;;;;5050647;28;20528;-71
2022/05/14 07:29:36;;;;;;;14.32;2.72;;;;;;;;;;5049980;28;20052;-71
2022/05/14 07:32:03;;;;;;;16.88;3.70;;;;;;;;;;5051271;28;20045;-69
2022/05/14 07:34:28;;;;;;;17.23;4.25;;;;;;;;;;5050892;28;20100;-70
2022/05/14 07:36:56;;;;;;;9.40;3.28;;;;;;;;;;5046182;28;20143;-70
2022/05/14 07:39:23;;;;;;;19.73;3.53;;;;;;;;;;5047542;28;20025;-71
2022/05/14 07:41:50;;;;;;;10.95;3.50;;;;;;;;;;5048929;28;20021;-70
2022/05/14 07:44:17;;;;;;;17.15;2.83;;;;;;;;;;5050234;28;20021;-70
2022/05/14 07:46:44;;;;;;;10.23;2.78;;;;;;;;;;5046186;28;20107;-70
2022/05/14 07:49:11;;;;;;;10.90;3.08;;;;;;;;;;5044534;28;20025;-71
2022/05/14 07:51:37;;;;;;;9.27;2.75;;;;;;;;;;5049359;28;20013;-70
2022/05/14 07:54:03;;;;;;;10.98;2.70;;;;;;;;;;5042988;28;20082;-70
2022/05/14 07:56:28;;;;;;;12.48;2.60;;;;;;;;;;5045953;28;20025;-70
2022/05/14 07:58:53;;;;;;;10.63;2.60;;;;;;;;;;5044434;28;20444;-70
2022/05/14 08:01:18;;;;;;;11.98;3.00;;;;;;;;;;5044567;28;20023;-71
2022/05/14 08:03:44;;;;;;;11.13;2.77;;;;;;;;;;5044151;28;20028;-71
2022/05/14 08:06:11;;;;;;;11.75;2.65;;;;;;;;;;5049778;28;20445;-70
2022/05/14 08:08:36;;;;;;;9.68;2.13;;;;;;;;;;5049380;28;20025;-70
2022/05/14 08:11:02;;;;;;;8.70;2.58;;;;;;;;;;5050367;28;20496;-69
2022/05/14 08:13:27;;;;;;;8.10;1.90;;;;;;;;;;5050189;28;20384;-69
2022/05/14 08:15:53;;;;;;;10.65;2.20;;;;;;;;;;5050690;28;20036;-69
2022/05/14 08:18:18;;;;;;;9.95;2.33;;;;;;;;;;5048157;28;20683;-68
2022/05/14 08:20:45;;;;;;;8.10;2.40;;;;;;;;;;5050806;28;20028;-68
2022/05/14 08:25:56;;;;;;;15.20;2.83;;;;;;;;;;5048699;28;20043;-70
2022/05/14 08:28:21;;;;;;;11.15;2.53;;;;;;;;;;5043674;28;20013;-70
2022/05/14 08:30:46;;;;;;;8.83;3.37;;;;;;;;;;5050233;28;20511;-70
2022/05/14 08:33:11;;;;;;;9.90;2.40;;;;;;;;;;5047774;28;20027;-70
2022/05/14 08:35:37;;;;;;;9.65;2.35;;;;;;;;;;5047341;28;20825;-69
2022/05/14 08:38:02;;;;;;;10.43;2.70;;;;;;;;;;5047136;28;20021;-69
2022/05/14 08:40:29;;;;;;;8.97;2.43;;;;;;;;;;5047175;28;20721;-69
2022/05/14 08:42:59;;;;;;;12.43;3.30;;;;;;;;;;5045071;28;20349;-70
2022/05/14 08:45:26;;;;;;;15.68;3.67;;;;;;;;;;5044969;28;20055;-69
2022/05/14 08:47:55;;;;;;;14.85;2.80;;;;;;;;;;5049155;28;20025;-69
2022/05/14 08:50:22;;;;;;;9.05;2.67;;;;;;;;;;5049545;28;20115;-69
2022/05/14 08:52:47;;;;;;;10.20;2.60;;;;;;;;;;5047954;28;20017;-70
2022/05/14 08:55:17;;;;;;;9.27;3.03;;;;;;;;;;5046830;28;20385;-69
2022/05/14 08:57:48;;;;;;;10.80;3.38;;;;;;;;;;5043592;28;20041;-70
2022/05/14 09:00:15;;;;;;;10.85;3.45;;;;;;;;;;5047560;28;20025;-70
2022/05/14 09:02:42;;;;;;;14.93;2.17;;;;;;;;;;5045263;28;20444;-70
2022/05/14 09:05:09;;;;;;;12.40;2.90;;;;;;;;;;5047740;28;20024;-70
2022/05/14 09:07:36;;;;;;;13.45;3.33;;;;;;;;;;5048596;28;20679;-70
2022/05/14 09:10:03;;;;;;;12.50;2.60;;;;;;;;;;5048383;28;20021;-70
2022/05/14 09:12:30;;;;;;;15.43;2.53;;;;;;;;;;5049043;28;20027;-70
2022/05/14 09:14:58;;;;;;;11.32;3.13;;;;;;;;;;5044745;28;20074;-70
2022/05/14 09:17:24;;;;;;;12.27;3.28;;;;;;;;;;5047241;28;20112;-70
2022/05/14 09:19:50;;;;;;;18.88;2.67;;;;;;;;;;5047845;28;20082;-70
2022/05/14 09:22:16;;;;;;;15.68;3.15;;;;;;;;;;5047755;28;20032;-71
2022/05/14 09:24:45;;;;;;;14.10;2.38;;;;;;;;;;5047835;28;20032;-70
2022/05/14 09:27:22;;;;;;;15.60;2.70;;;;;;;;;;5051151;28;20028;-70
2022/05/14 09:29:50;;;;;;;12.90;2.65;;;;;;;;;;5049816;28;20017;-70
2022/05/14 09:32:20;;;;;;;10.77;2.67;;;;;;;;;;5047593;28;20021;-70
2022/05/14 09:34:45;;;;;;;6.55;2.45;;;;;;;;;;5049964;28;20017;-70
2022/05/14 09:37:12;;;;;;;12.20;2.67;;;;;;;;;;5047885;28;20040;-70
2022/05/14 09:39:37;;;;;;;17.85;3.00;;;;;;;;;;5047632;28;20108;-70
2022/05/14 09:42:04;;;;;;;14.93;3.00;;;;;;;;;;5047717;28;20116;-70
2022/05/14 09:44:49;;;;;;;12.18;3.70;;;;;;;;;;5048647;28;20033;-70
2022/05/14 09:47:16;;;;;;;15.23;3.42;;;;;;;;;;5052354;28;20021;-70
2022/05/14 09:49:52;;;;;;;14.50;3.30;;;;;;;;;;5053198;28;20029;-71
2022/05/14 09:52:22;;;;;;;15.55;3.10;;;;;;;;;;5050284;28;20544;-71
2022/05/14 09:54:48;;;;;;;14.73;2.00;;;;;;;;;;5053356;28;20401;-70
2022/05/14 09:57:33;;;;;;;18.05;2.85;;;;;;;;;;5050285;28;20064;-70
2022/05/14 10:00:10;;;;;;;13.95;3.65;;;;;;;;;;5052797;28;20033;-70
2022/05/14 10:02:44;;;;;;;21.63;3.45;;;;;;;;;;5052059;28;20439;-70
2022/05/14 10:05:09;;;;;;;16.58;3.65;;;;;;;;;;5052641;28;20045;-70
2022/05/14 10:07:47;;;;;;;15.27;5.05;;;;;;;;;;5051545;28;20049;-70
2022/05/14 10:10:31;;;;;;;22.17;5.00;;;;;;;;;;5049061;28;20021;-71
2022/05/14 10:13:02;;;;;;;13.55;2.53;;;;;;;;;;5049515;28;20068;-70
2022/05/14 10:15:45;;;;;;;14.35;2.60;;;;;;;;;;5053435;28;20428;-70
2022/05/14 10:18:13;;;;;;;13.23;3.00;;;;;;;;;;5051869;28;20051;-70
2022/05/14 10:20:46;;;;;;;16.70;2.97;;;;;;;;;;5051989;28;20100;-71
2022/05/14 10:28:57;;;;;;;21.55;4.57;;;;;;;;;;5032821;28;20505;-70
2022/05/14 10:31:41;;;;;;;19.67;3.97;;;;;;;;;;5032751;28;20045;-70
2022/05/14 10:34:10;;;;;;;19.00;3.25;;;;;;;;;;5033663;28;20026;-70
2022/05/14 10:36:41;;;;;;;16.88;4.22;;;;;;;;;;5049860;28;20016;-70
2022/05/14 10:39:11;;;;;;;15.02;3.22;;;;;;;;;;5052883;28;20028;-70
2022/05/14 10:41:42;;;;;;;11.65;2.70;;;;;;;;;;5052565;28;20067;-70
2022/05/14 10:44:15;;;;;;;14.07;3.40;;;;;;;;;;5051737;28;20373;-69
2022/05/14 10:46:41;;;;;;;16.23;3.40;;;;;;;;;;5052144;28;20089;-71
2022/05/14 10:49:22;;;;;;;16.00;4.85;;;;;;;;;;5052883;28;20013;-70
2022/05/14 10:51:49;;;;;;;13.68;3.53;;;;;;;;;;5052465;28;20154;-70
2022/05/14 10:54:16;;;;;;;28.10;4.72;;;;;;;;;;5050875;28;20016;-70
2022/05/14 10:56:50;;;;;;;13.68;3.38;;;;;;;;;;5047576;28;20078;-70
2022/05/14 10:59:26;;;;;;;14.88;4.03;;;;;;;;;;5050943;28;20485;-70
2022/05/14 11:01:51;;;;;;;11.50;2.97;;;;;;;;;;5052351;28;20036;-70
2022/05/14 11:04:19;;;;;;;18.15;3.25;;;;;;;;;;5052260;28;20024;-70
2022/05/14 11:07:03;;;;;;;12.35;3.25;;;;;;;;;;5051360;28;20159;-69
2022/05/14 11:09:40;;;;;;;10.32;2.90;;;;;;;;;;5052445;28;20086;-69
2022/05/14 11:12:10;;;;;;;14.73;4.10;;;;;;;;;;5048360;28;20099;-69
2022/05/14 11:14:37;;;;;;;10.90;3.85;;;;;;;;;;5051787;28;20048;-70
2022/05/14 11:17:02;;;;;;;20.48;3.53;;;;;;;;;;5049151;28;20024;-70
2022/05/14 11:19:29;;;;;;;7.80;2.42;;;;;;;;;;5050236;28;20036;-69
2022/05/14 11:21:55;;;;;;;11.50;3.45;;;;;;;;;;5047611;28;20028;-70
2022/05/14 11:24:30;;;;;;;15.93;3.67;;;;;;;;;;5048843;28;20021;-69
2022/05/14 11:26:55;;;;;;;16.38;4.05;;;;;;;;;;5053273;28;20100;-69
2022/05/14 11:29:23;;;;;;;15.13;3.25;;;;;;;;;;5049118;28;20104;-70
2022/05/14 11:31:50;;;;;;;17.70;3.55;;;;;;;;;;5050409;28;20045;-69
2022/05/14 11:34:17;;;;;;;15.43;3.30;;;;;;;;;;5049528;28;20111;-70
2022/05/14 11:36:50;;;;;;;20.52;3.58;;;;;;;;;;5050220;28;20056;-70
2022/05/14 11:39:21;;;;;;;15.60;3.83;;;;;;;;;;5051289;28;20021;-70
2022/05/14 11:41:47;;;;;;;10.95;2.97;;;;;;;;;;5050375;28;21131;-70
2022/05/14 11:44:12;;;;;;;16.08;3.03;;;;;;;;;;5050594;28;20375;-70
2022/05/14 11:46:45;;;;;;;11.50;2.53;;;;;;;;;;5050206;28;20021;-70
2022/05/14 11:49:10;;;;;;;6.93;2.00;;;;;;;;;;5050191;28;20009;-69
2022/05/14 11:51:38;;;;;;;14.30;2.97;;;;;;;;;;5049949;28;20036;-69
2022/05/14 11:54:12;;;;;;;14.02;3.72;;;;;;;;;;5050951;28;20435;-70
2022/05/14 11:56:46;;;;;;;18.75;3.92;;;;;;;;;;5049619;28;20128;-69
2022/05/14 11:59:34;;;;;;;16.38;2.97;;;;;;;;;;5050088;28;20017;-69
2022/05/14 12:02:01;;;;;;;12.05;3.10;;;;;;;;;;5047201;28;20024;-69
2022/05/14 12:04:32;;;;;;;19.02;3.47;;;;;;;;;;5050669;28;20124;-70
2022/05/14 12:07:22;;;;;;;14.02;3.22;;;;;;;;;;5048789;28;20526;-70
2022/05/14 12:10:06;;;;;;;13.75;3.63;;;;;;;;;;5049476;28;20104;-70
2022/05/14 12:12:37;;;;;;;19.60;4.40;;;;;;;;;;5050577;28;20017;-70
2022/05/14 12:15:11;;;;;;;10.10;3.25;;;;;;;;;;5049310;28;20043;-70
2022/05/14 12:17:36;;;;;;;17.27;3.38;;;;;;;;;;5049889;28;20066;-69
2022/05/14 12:20:03;;;;;;;12.65;3.03;;;;;;;;;;5051327;28;20017;-70
2022/05/14 12:22:29;;;;;;;20.45;3.40;;;;;;;;;;5050751;28;20021;-70
2022/05/14 12:25:04;;;;;;;9.50;3.13;;;;;;;;;;5046988;28;20401;-70
2022/05/14 12:27:30;;;;;;;21.30;3.47;;;;;;;;;;5049634;28;20043;-70
2022/05/14 12:29:55;;;;;;;11.77;4.70;;;;;;;;;;5052319;28;20025;-69
2022/05/14 12:35:18;;;;;;;18.50;4.65;;;;;;;;;;5047119;28;20278;-70
2022/05/14 12:37:44;;;;;;;17.92;4.10;;;;;;;;;;5049532;28;20108;-70
2022/05/14 12:40:20;;;;;;;16.45;3.85;;;;;;;;;;5049295;28;20027;-70
2022/05/14 12:42:46;;;;;;;14.80;3.95;;;;;;;;;;5045962;28;20025;-70
2022/05/14 12:45:12;;;;;;;21.38;4.35;;;;;;;;;;5047180;28;20016;-70
2022/05/14 12:47:37;;;;;;;14.00;3.80;;;;;;;;;;5047070;28;20088;-70
2022/05/14 12:50:04;;;;;;;22.60;3.33;;;;;;;;;;5048193;28;20457;-69
2022/05/14 12:52:32;;;;;;;17.73;4.13;;;;;;;;;;5050835;28;20025;-68
2022/05/14 12:55:14;;;;;;;17.15;3.50;;;;;;;;;;5045688;28;20017;-70
2022/05/14 12:57:43;;;;;;;17.75;4.07;;;;;;;;;;5050071;28;20093;-70
2022/05/14 13:00:08;;;;;;;15.77;3.80;;;;;;;;;;5049460;28;20021;-70
2022/05/14 13:02:36;;;;;;;9.65;3.30;;;;;;;;;;5047776;28;20481;-70
2022/05/14 13:05:04;;;;;;;15.68;3.83;;;;;;;;;;5047720;28;20033;-70
2022/05/14 13:07:31;;;;;;;12.32;3.15;;;;;;;;;;5050099;28;20017;-70
2022/05/14 13:09:57;;;;;;;12.88;3.08;;;;;;;;;;5050013;28;20017;-70
2022/05/14 13:12:24;;;;;;;15.75;3.00;;;;;;;;;;5046247;28;20029;-70
2022/05/14 13:14:59;;;;;;;20.90;3.10;;;;;;;;;;5044184;28;20029;-70
2022/05/14 13:17:35;;;;;;;12.35;2.70;;;;;;;;;;5048269;28;20072;-70
2022/05/14 13:20:01;;;;;;;12.40;3.70;;;;;;;;;;5049390;28;20060;-70
2022/05/14 13:22:29;;;;;;;13.43;3.38;;;;;;;;;;5046055;28;20036;-71
2022/05/14 13:24:55;;;;;;;12.60;2.88;;;;;;;;;;5049608;28;20075;-71
2022/05/14 13:27:31;;;;;;;21.38;3.33;;;;;;;;;;5048350;28;20025;-71
2022/05/14 13:30:00;;;;;;;16.65;3.65;;;;;;;;;;5045061;28;20371;-71
2022/05/14 13:32:27;;;;;;;17.83;3.42;;;;;;;;;;5049317;28;20438;-69
2022/05/14 13:37:39;;;;;;;12.23;2.75;;;;;;;;;;5047618;28;20058;-71
2022/05/14 13:40:10;;;;;;;16.70;3.35;;;;;;;;;;5048281;28;20272;-71
2022/05/14 13:42:44;;;;;;;16.58;3.22;;;;;;;;;;5046793;28;20029;-71
2022/05/14 13:45:10;;;;;;;15.02;3.38;;;;;;;;;;5045290;28;20028;-71
2022/05/14 13:47:39;;;;;;;18.95;3.03;;;;;;;;;;5043331;28;20381;-71
2022/05/14 13:50:04;;;;;;;15.98;4.07;;;;;;;;;;5048079;28;20100;-71
2022/05/14 13:52:34;;;;;;;10.68;3.03;;;;;;;;;;5047366;28;20108;-71
2022/05/14 13:55:05;;;;;;;13.18;3.15;;;;;;;;;;5045737;28;20028;-70
2022/05/14 13:57:30;;;;;;;11.65;3.45;;;;;;;;;;5048486;28;20037;-71
2022/05/14 14:00:25;;;;;;;17.40;3.00;;;;;;;;;;5048802;28;20023;-71
2022/05/14 14:03:00;;;;;;;15.13;3.15;;;;;;;;;;5030887;28;20033;-71
2022/05/14 14:05:26;;;;;;;12.23;2.85;;;;;;;;;;5048026;28;20029;-71
2022/05/14 14:07:51;;;;;;;14.65;2.88;;;;;;;;;;5047540;28;20023;-71
2022/05/14 14:10:18;;;;;;;19.95;3.08;;;;;;;;;;5048249;28;20078;-71
2022/05/14 14:12:43;;;;;;;14.93;2.92;;;;;;;;;;5048098;28;20622;-71
2022/05/14 14:15:09;;;;;;;15.70;3.05;;;;;;;;;;5044997;28;20100;-70
2022/05/14 14:17:35;;;;;;;14.10;3.45;;;;;;;;;;5043546;28;20056;-71
2022/05/14 14:20:00;;;;;;;17.50;3.60;;;;;;;;;;5045815;28;20373;-71
2022/05/14 14:22:27;;;;;;;15.18;3.13;;;;;;;;;;5048082;28;20036;-71
2022/05/14 14:24:53;;;;;;;13.00;2.60;;;;;;;;;;5045792;28;20020;-71
2022/05/14 14:27:18;;;;;;;8.23;2.53;;;;;;;;;;5046155;28;20025;-71
2022/05/14 14:29:44;;;;;;;16.60;3.83;;;;;;;;;;5048142;28;20028;-70
2022/05/14 14:32:09;;;;;;;11.52;2.95;;;;;;;;;;5051410;28;20028;-71
2022/05/14 14:34:34;;;;;;;11.82;2.97;;;;;;;;;;5050248;28;20028;-70
2022/05/14 14:36:59;;;;;;;9.67;2.37;;;;;;;;;;5052610;28;20025;-69
2022/05/14 14:39:24;;;;;;;10.43;3.50;;;;;;;;;;5051506;28;20275;-72
2022/05/14 14:41:50;;;;;;;10.03;2.17;;;;;;;;;;5052512;28;20020;-70
2022/05/14 14:44:15;;;;;;;8.70;2.50;;;;;;;;;;5049946;28;20382;-70
2022/05/14 14:46:40;;;;;;;13.50;3.20;;;;;;;;;;5048159;28;20728;-69
2022/05/14 14:49:08;;;;;;;11.13;3.00;;;;;;;;;;5050222;28;20278;-71
2022/05/14 14:51:34;;;;;;;9.57;2.55;;;;;;;;;;5051428;28;20028;-70
2022/05/14 14:53:59;;;;;;;16.65;2.67;;;;;;;;;;5051541;28;20104;-69
2022/05/14 14:56:24;;;;;;;11.03;3.20;;;;;;;;;;5051168;28;20021;-70
2022/05/14 14:58:50;;;;;;;10.38;2.60;;;;;;;;;;5091293;22;20307;-69